createdAt,value
2018-03-11T00:02:18.678Z,72.85
2018-03-11T00:05:21.895Z,72.73
2018-03-11T00:08:25.164Z,72.92
2018-03-11T00:11:28.416Z,72.67
2018-03-11T00:14:31.699Z,72.44
2018-03-11T00:17:35.018Z,72.39
2018-03-11T00:20:38.271Z,72.00
2018-03-11T00:23:43.041Z,71.79
2018-03-11T00:26:46.292Z,71.01
2018-03-11T00:29:49.565Z,70.34
2018-03-11T00:32:52.825Z,70.21
2018-03-11T00:35:56.957Z,70.56
2018-03-11T00:39:00.206Z,70.43
2018-03-11T00:42:03.472Z,70.59
2018-03-11T00:45:06.729Z,70.93
2018-03-11T00:48:10.754Z,70.82
2018-03-11T00:51:14.961Z,70.69
2018-03-11T00:54:18.985Z,70.88
2018-03-11T00:57:23.002Z,70.83
2018-03-11T01:00:26.265Z,70.81
2018-03-11T01:03:29.617Z,70.61
2018-03-11T01:06:33.060Z,70.58
2018-03-11T01:09:36.321Z,70.46
2018-03-11T01:12:39.596Z,70.46
2018-03-11T01:15:42.871Z,70.58
2018-03-11T01:18:46.904Z,70.58
2018-03-11T01:21:51.017Z,70.28
2018-03-11T01:24:55.068Z,70.31
2018-03-11T01:27:58.321Z,70.76
2018-03-11T01:31:02.346Z,70.27
2018-03-11T01:34:06.422Z,69.99
2018-03-11T01:37:09.762Z,70.20
2018-03-11T01:40:13.790Z,70.31
2018-03-11T01:43:17.081Z,69.78
2018-03-11T01:46:20.420Z,69.72
2018-03-11T01:49:23.676Z,69.72
2018-03-11T01:52:26.932Z,70.00
2018-03-11T01:55:30.267Z,70.25
2018-03-11T01:58:34.392Z,70.20
2018-03-11T02:01:37.646Z,70.80
2018-03-11T02:04:40.986Z,70.92
2018-03-11T02:07:44.241Z,71.23
2018-03-11T02:10:47.504Z,71.46
2018-03-11T02:13:50.867Z,71.77
2018-03-11T02:16:54.131Z,72.49
2018-03-11T02:19:57.382Z,72.14
2018-03-11T02:23:00.646Z,72.33
2018-03-11T02:26:04.686Z,72.35
2018-03-11T02:29:07.969Z,72.68
2018-03-11T02:32:11.988Z,72.15
2018-03-11T02:35:16.012Z,72.17
2018-03-11T02:38:19.281Z,72.71
2018-03-11T02:41:23.340Z,72.72
2018-03-11T02:44:26.600Z,72.27
2018-03-11T02:47:30.612Z,72.36
2018-03-11T02:50:34.657Z,72.13
2018-03-11T02:53:37.911Z,71.49
2018-03-11T02:56:41.237Z,70.81
2018-03-11T02:59:44.504Z,70.54
2018-03-11T03:02:47.769Z,70.08
2018-03-11T03:05:51.054Z,69.55
2018-03-11T03:08:54.341Z,69.39
2018-03-11T03:11:57.602Z,69.05
2018-03-11T03:15:01.072Z,69.08
2018-03-11T03:18:04.437Z,69.10
2018-03-11T03:21:07.689Z,69.48
2018-03-11T03:24:10.954Z,69.25
2018-03-11T03:27:14.213Z,69.08
2018-03-11T03:30:17.479Z,68.83
2018-03-11T03:33:20.754Z,68.57
2018-03-11T03:36:24.021Z,68.74
2018-03-11T03:39:27.400Z,68.89
2018-03-11T03:42:31.436Z,69.16
2018-03-11T03:45:34.698Z,69.23
2018-03-11T03:48:38.737Z,69.33
2018-03-11T03:51:42.047Z,69.30
2018-03-11T03:54:45.319Z,69.36
2018-03-11T03:57:49.350Z,69.22
2018-03-11T04:00:52.613Z,69.37
2018-03-11T04:03:55.869Z,69.30
2018-03-11T04:06:59.165Z,69.21
2018-03-11T04:10:02.437Z,69.76
2018-03-11T04:13:05.687Z,69.75
2018-03-11T04:16:09.039Z,70.23
2018-03-11T04:19:12.291Z,70.27
2018-03-11T04:22:15.625Z,69.80
2018-03-11T04:25:18.888Z,69.94
2018-03-11T04:28:22.928Z,70.26
2018-03-11T04:31:26.952Z,69.63
2018-03-11T04:34:30.205Z,69.67
2018-03-11T04:37:33.492Z,69.55
2018-03-11T04:40:36.757Z,69.37
2018-03-11T04:43:40.010Z,69.27
2018-03-11T04:46:43.300Z,69.22
2018-03-11T04:49:46.575Z,69.44
2018-03-11T04:52:49.831Z,69.37
2018-03-11T04:55:53.107Z,69.42
2018-03-11T04:58:57.141Z,69.46
2018-03-11T05:02:00.432Z,69.93
2018-03-11T05:05:04.461Z,70.40
2018-03-11T05:08:07.714Z,71.31
2018-03-11T05:11:10.973Z,71.14
2018-03-11T05:14:14.341Z,71.21
2018-03-11T05:17:17.621Z,71.34
2018-03-11T05:20:21.650Z,71.22
2018-03-11T05:23:25.708Z,71.35
2018-03-11T05:26:29.066Z,71.37
2018-03-11T05:29:33.081Z,71.87
2018-03-11T05:32:36.352Z,71.51
2018-03-11T05:35:39.667Z,71.53
2018-03-11T05:38:43.792Z,71.77
2018-03-11T05:41:47.220Z,72.56
2018-03-11T05:44:50.468Z,72.33
2018-03-11T05:47:53.726Z,73.07
2018-03-11T05:50:56.983Z,72.73
2018-03-11T05:54:00.266Z,72.47
2018-03-11T05:57:03.583Z,71.71
2018-03-11T06:00:07.612Z,71.30
2018-03-11T06:03:11.154Z,70.97
2018-03-11T06:06:15.852Z,70.72
2018-03-11T06:09:19.139Z,70.37
2018-03-11T06:12:22.405Z,70.30
2018-03-11T06:15:26.432Z,69.71
2018-03-11T06:18:30.468Z,69.50
2018-03-11T06:21:33.740Z,69.24
2018-03-11T06:24:37.769Z,68.85
2018-03-11T06:27:41.797Z,69.37
2018-03-11T06:30:45.081Z,68.53
2018-03-11T06:33:49.101Z,67.87
2018-03-11T06:36:52.361Z,67.40
2018-03-11T06:39:55.608Z,67.10
2018-03-11T06:42:58.991Z,67.00
2018-03-11T06:46:02.269Z,67.28
2018-03-11T06:49:06.304Z,67.16
2018-03-11T06:52:10.341Z,66.24
2018-03-11T06:55:13.595Z,66.13
2018-03-11T06:58:17.113Z,65.46
2018-03-11T07:01:21.142Z,64.97
2018-03-11T07:04:24.388Z,65.36
2018-03-11T07:07:27.714Z,65.85
2018-03-11T07:10:30.967Z,65.31
2018-03-11T07:13:34.272Z,65.11
2018-03-11T07:16:37.550Z,63.91
2018-03-11T07:19:40.793Z,64.33
2018-03-11T07:22:44.060Z,62.89
2018-03-11T07:25:47.327Z,62.79
2018-03-11T07:28:50.684Z,62.80
2018-03-11T07:31:54.005Z,61.79
2018-03-11T07:34:58.116Z,61.10
2018-03-11T07:38:01.404Z,60.20
2018-03-11T07:41:04.701Z,60.39
2018-03-11T07:44:08.052Z,59.90
2018-03-11T07:47:11.425Z,59.12
2018-03-11T07:50:14.685Z,58.94
2018-03-11T07:53:17.942Z,57.90
2018-03-11T07:56:21.211Z,57.99
2018-03-11T07:59:24.484Z,57.59
2018-03-11T08:02:27.759Z,58.36
2018-03-11T08:05:31.048Z,58.84
2018-03-11T08:08:34.817Z,61.10
2018-03-11T08:11:38.576Z,60.09
2018-03-11T08:14:42.207Z,58.66
2018-03-11T08:17:45.556Z,59.17
2018-03-11T08:20:48.922Z,58.15
2018-03-11T08:23:52.325Z,57.36
2018-03-11T08:26:55.656Z,56.46
2018-03-11T08:29:58.918Z,55.59
2018-03-11T08:33:03.145Z,55.98
2018-03-11T08:36:06.488Z,54.97
2018-03-11T08:39:09.944Z,54.33
2018-03-11T08:42:13.242Z,54.51
2018-03-11T08:45:16.534Z,54.09
2018-03-11T08:48:20.620Z,54.68
2018-03-11T08:51:24.100Z,53.84
2018-03-11T08:54:27.432Z,53.62
2018-03-11T08:57:31.507Z,55.44
2018-03-11T09:00:34.896Z,55.08
2018-03-11T09:03:38.215Z,54.52
2018-03-11T09:06:41.535Z,54.18
2018-03-11T09:09:45.573Z,53.92
2018-03-11T09:12:49.693Z,53.43
2018-03-11T09:15:53.734Z,52.39
2018-03-11T09:18:57.076Z,52.43
2018-03-11T09:22:00.405Z,50.82
2018-03-11T09:25:04.584Z,51.33
2018-03-11T09:28:08.136Z,50.86
2018-03-11T09:31:11.434Z,50.99
2018-03-11T09:34:14.722Z,49.52
2018-03-11T09:37:18.769Z,49.51
2018-03-11T09:40:22.053Z,50.38
2018-03-11T09:43:25.329Z,51.49
2018-03-11T09:46:29.400Z,50.04
2018-03-11T09:49:32.633Z,50.08
2018-03-11T09:52:36.675Z,49.02
2018-03-11T09:55:39.958Z,48.00
2018-03-11T09:58:43.254Z,48.31
2018-03-11T10:01:47.293Z,47.56
2018-03-11T10:04:50.615Z,48.75
2018-03-11T10:07:53.885Z,47.29
2018-03-11T10:10:57.178Z,49.21
2018-03-11T10:14:00.441Z,49.37
2018-03-11T10:17:04.517Z,47.58
2018-03-11T10:20:07.776Z,45.46
2018-03-11T10:23:11.039Z,46.32
2018-03-11T10:26:14.316Z,45.74
2018-03-11T10:29:17.579Z,47.07
2018-03-11T10:32:20.919Z,47.14
2018-03-11T10:35:24.334Z,46.07
2018-03-11T10:38:27.651Z,46.26
2018-03-11T10:41:30.953Z,44.82
2018-03-11T10:44:35.041Z,45.76
2018-03-11T10:47:38.308Z,45.26
2018-03-11T10:50:41.685Z,45.69
2018-03-11T10:53:44.945Z,44.57
2018-03-11T10:56:48.236Z,44.98
2018-03-11T10:59:51.572Z,44.44
2018-03-11T11:03:00.344Z,44.24
2018-03-11T11:06:03.619Z,43.19
2018-03-11T11:09:06.954Z,45.09
2018-03-11T11:12:10.249Z,43.65
2018-03-11T11:15:13.521Z,42.82
2018-03-11T11:18:16.798Z,41.92
2018-03-11T11:21:21.420Z,41.09
2018-03-11T11:24:26.157Z,41.08
2018-03-11T11:27:30.204Z,40.32
2018-03-11T11:30:33.570Z,39.99
2018-03-11T11:33:36.876Z,39.00
2018-03-11T11:36:40.152Z,39.20
2018-03-11T11:39:44.206Z,39.89
2018-03-11T11:42:47.493Z,39.86
2018-03-11T11:45:50.770Z,39.80
2018-03-11T11:48:55.001Z,39.99
2018-03-11T11:51:58.297Z,40.36
2018-03-11T11:55:02.318Z,41.28
2018-03-11T11:58:05.679Z,41.70
2018-03-11T12:01:08.948Z,41.88
2018-03-11T12:04:12.303Z,41.81
2018-03-11T12:07:16.337Z,41.74
2018-03-11T12:10:19.608Z,42.11
2018-03-11T12:13:23.654Z,40.86
2018-03-11T12:16:27.138Z,40.46
2018-03-11T12:19:30.393Z,40.27
2018-03-11T12:22:33.690Z,39.66
2018-03-11T12:25:36.941Z,40.76
2018-03-11T12:28:40.208Z,40.24
2018-03-11T12:31:44.396Z,39.77
2018-03-11T12:34:47.739Z,39.31
2018-03-11T12:37:51.037Z,38.74
2018-03-11T12:40:54.443Z,39.21
2018-03-11T12:43:57.759Z,40.69
2018-03-11T12:47:01.447Z,41.26
2018-03-11T12:50:06.167Z,41.30
2018-03-11T12:53:10.343Z,41.07
2018-03-11T12:56:13.721Z,41.10
2018-03-11T12:59:17.254Z,40.41
2018-03-11T13:02:20.550Z,40.18
2018-03-11T13:05:23.918Z,41.17
2018-03-11T13:08:27.312Z,41.25
2018-03-11T13:11:30.656Z,41.65
2018-03-11T13:14:33.958Z,42.04
2018-03-11T13:17:38.934Z,41.93
2018-03-11T13:21:00.098Z,41.76
2018-03-11T13:24:03.385Z,41.35
2018-03-11T13:27:11.261Z,41.65
2018-03-11T13:30:14.829Z,43.06
2018-03-11T13:33:35.901Z,44.41
2018-03-11T13:36:39.457Z,45.18
2018-03-11T13:40:00.854Z,45.24
2018-03-11T13:43:07.132Z,45.60
2018-03-11T13:49:54.155Z,47.03
2018-03-11T13:53:15.494Z,46.51
2018-03-11T13:56:18.922Z,46.74
2018-03-11T13:59:23.037Z,47.81
2018-03-11T14:02:26.398Z,47.71
2018-03-11T14:05:29.691Z,48.26
2018-03-11T14:08:33.452Z,48.00
2018-03-11T14:11:36.849Z,48.23
2018-03-11T14:14:40.909Z,48.36
2018-03-11T14:17:44.184Z,48.47
2018-03-11T14:20:47.478Z,48.78
2018-03-11T14:23:51.191Z,48.81
2018-03-11T14:26:54.468Z,48.87
2018-03-11T14:29:57.745Z,48.93
2018-03-11T14:33:01.790Z,49.20
2018-03-11T14:36:05.057Z,48.89
2018-03-11T14:39:09.846Z,49.39
2018-03-11T14:42:13.113Z,49.40
2018-03-11T14:45:16.391Z,49.81
2018-03-11T14:48:19.694Z,49.26
2018-03-11T14:51:23.756Z,50.43
2018-03-11T14:54:27.039Z,50.01
2018-03-11T14:57:30.711Z,49.81
2018-03-11T15:00:34.775Z,50.19
2018-03-11T15:03:38.399Z,49.38
2018-03-11T15:06:42.225Z,49.59
2018-03-11T15:09:45.527Z,48.96
2018-03-11T15:12:49.572Z,49.09
2018-03-11T15:15:53.612Z,48.89
2018-03-11T15:18:57.000Z,49.48
2018-03-11T15:25:07.355Z,52.32
2018-03-11T15:28:10.691Z,52.71
2018-03-11T15:31:13.945Z,55.56
2018-03-11T15:34:17.240Z,55.80
2018-03-11T15:37:20.716Z,55.36
2018-03-11T15:40:24.005Z,55.37
2018-03-11T15:43:27.405Z,55.37
2018-03-11T15:46:31.110Z,55.30
2018-03-11T15:49:35.949Z,55.45
2018-03-11T15:52:39.226Z,55.71
2018-03-11T15:55:42.490Z,56.39
2018-03-11T15:58:46.562Z,57.50
2018-03-11T16:01:49.825Z,57.19
2018-03-11T16:04:53.149Z,55.33
2018-03-11T16:07:56.784Z,54.39
2018-03-11T16:11:01.209Z,54.11
2018-03-11T16:14:04.491Z,53.26
2018-03-11T16:17:07.764Z,53.19
2018-03-11T16:20:11.143Z,52.70
2018-03-11T16:23:14.411Z,53.35
2018-03-11T16:26:17.731Z,53.30
2018-03-11T16:29:21.034Z,53.83
2018-03-11T16:32:24.527Z,54.28
2018-03-11T16:35:28.963Z,54.73
2018-03-11T16:38:32.254Z,54.83
2018-03-11T16:41:35.594Z,54.81
2018-03-11T16:44:38.858Z,55.02
2018-03-11T16:47:42.730Z,55.44
2018-03-11T16:50:46.101Z,56.22
2018-03-11T16:53:49.390Z,56.19
2018-03-11T16:56:52.772Z,56.35
2018-03-11T16:59:56.051Z,56.26
2018-03-11T17:03:00.109Z,57.31
2018-03-11T17:06:03.388Z,56.86
2018-03-11T17:09:06.970Z,57.22
2018-03-11T17:12:11.047Z,58.24
2018-03-11T17:15:14.418Z,58.08
2018-03-11T17:18:17.744Z,58.48
2018-03-11T17:21:21.889Z,59.25
2018-03-11T17:24:26.200Z,59.81
2018-03-11T17:27:29.478Z,60.26
2018-03-11T17:30:32.850Z,61.53
2018-03-11T17:33:36.249Z,61.66
2018-03-11T17:36:40.080Z,65.83
2018-03-11T17:39:43.518Z,66.23
2018-03-11T17:42:46.844Z,66.00
2018-03-11T17:45:50.142Z,65.62
2018-03-11T17:48:54.199Z,66.43
2018-03-11T17:51:57.464Z,69.06
2018-03-11T17:55:00.749Z,70.49
2018-03-11T17:58:04.859Z,70.50
2018-03-11T18:01:08.906Z,68.60
2018-03-11T18:04:12.194Z,68.36
2018-03-11T18:07:15.502Z,68.57
2018-03-11T18:10:18.799Z,67.29
2018-03-11T18:13:22.081Z,67.69
2018-03-11T18:16:25.415Z,67.59
2018-03-11T18:19:28.888Z,69.07
2018-03-11T18:22:32.257Z,68.05
2018-03-11T18:25:36.357Z,69.14
2018-03-11T18:28:40.474Z,68.17
2018-03-11T18:31:43.809Z,69.38
2018-03-11T18:34:47.076Z,68.24
2018-03-11T18:37:51.137Z,68.34
2018-03-11T18:40:54.517Z,67.48
2018-03-11T18:43:58.548Z,67.77
2018-03-11T18:47:01.910Z,67.79
2018-03-11T18:50:05.263Z,68.17
2018-03-11T18:53:08.636Z,68.40
2018-03-11T18:56:11.917Z,68.65
2018-03-11T18:59:16.065Z,69.81
2018-03-11T19:02:19.340Z,69.12
2018-03-11T19:05:23.373Z,69.55
2018-03-11T19:08:26.663Z,68.43
2018-03-11T19:11:29.924Z,68.38
2018-03-11T19:14:33.185Z,68.69
2018-03-11T19:17:36.477Z,68.52
2018-03-11T19:20:39.738Z,69.22
2018-03-11T19:23:43.762Z,69.79
2018-03-11T19:26:47.067Z,70.09
2018-03-11T19:29:50.404Z,71.48
2018-03-11T19:32:53.680Z,72.26
2018-03-11T19:35:56.973Z,71.31
2018-03-11T19:39:00.328Z,72.41
2018-03-11T19:42:03.587Z,72.23
2018-03-11T19:45:07.049Z,71.14
2018-03-11T19:48:10.320Z,71.83
2018-03-11T19:51:14.363Z,71.65
2018-03-11T19:54:17.613Z,71.81
2018-03-11T19:57:20.943Z,71.25
2018-03-11T20:00:24.958Z,73.48
2018-03-11T20:03:29.002Z,71.97
2018-03-11T20:06:32.271Z,73.04
2018-03-11T20:09:36.304Z,72.82
2018-03-11T20:12:39.564Z,73.37
2018-03-11T20:15:44.368Z,73.81
2018-03-11T20:18:48.513Z,73.27
2018-03-11T20:21:52.323Z,73.86
2018-03-11T20:24:59.893Z,73.86
2018-03-11T20:28:03.164Z,74.32
2018-03-11T20:31:12.038Z,74.79
2018-03-11T20:34:15.300Z,74.62
2018-03-11T20:37:18.567Z,74.59
2018-03-11T20:40:23.337Z,75.00
2018-03-11T20:43:26.658Z,74.27
2018-03-11T20:46:29.938Z,73.54
2018-03-11T20:49:33.312Z,74.34
2018-03-11T20:52:36.597Z,74.58
2018-03-11T20:55:39.850Z,74.96
2018-03-11T20:58:43.121Z,74.87
2018-03-11T21:01:46.444Z,74.43
2018-03-11T21:04:49.828Z,75.00
2018-03-11T21:07:53.094Z,74.52
2018-03-11T21:10:56.568Z,74.68
2018-03-11T21:14:00.114Z,74.58
2018-03-11T21:17:04.189Z,74.79
2018-03-11T21:20:07.446Z,75.09
2018-03-11T21:23:11.548Z,75.12
2018-03-11T21:26:14.810Z,75.28
2018-03-11T21:29:18.075Z,74.71
2018-03-11T21:32:21.325Z,73.96
2018-03-11T21:35:25.376Z,73.92
2018-03-11T21:38:28.665Z,73.72
2018-03-11T21:41:31.953Z,73.36
2018-03-11T21:44:35.261Z,73.29
2018-03-11T21:47:38.511Z,73.49
2018-03-11T21:50:41.840Z,73.76
2018-03-11T21:53:45.957Z,73.90
2018-03-11T21:56:49.985Z,73.75
2018-03-11T21:59:53.276Z,74.05
2018-03-11T22:02:56.532Z,73.95
2018-03-11T22:05:59.813Z,73.66
2018-03-11T22:09:03.071Z,73.75
2018-03-11T22:12:06.366Z,73.58
2018-03-11T22:15:09.613Z,73.62
2018-03-11T22:18:12.974Z,73.40
2018-03-11T22:21:16.297Z,73.79
2018-03-11T22:24:19.907Z,74.10
2018-03-11T22:27:23.173Z,74.15
2018-03-11T22:30:26.433Z,74.40
2018-03-11T22:33:30.459Z,74.51
2018-03-11T22:36:33.737Z,74.61
2018-03-11T22:39:37.060Z,74.46
2018-03-11T22:42:41.086Z,75.48
2018-03-11T22:45:44.378Z,75.54
2018-03-11T22:48:47.651Z,75.74
2018-03-11T22:51:51.669Z,75.74
2018-03-11T22:54:55.698Z,75.50
2018-03-11T22:57:59.717Z,76.16
2018-03-11T23:01:03.743Z,76.26
2018-03-11T23:04:07.023Z,76.14
2018-03-11T23:07:11.050Z,76.12
2018-03-11T23:10:14.316Z,76.07
2018-03-11T23:13:17.584Z,75.66
2018-03-11T23:16:20.898Z,76.32
2018-03-11T23:19:24.132Z,76.40
2018-03-11T23:22:27.527Z,76.30
2018-03-11T23:25:31.715Z,76.65
2018-03-11T23:28:34.974Z,76.48
2018-03-11T23:31:41.539Z,77.01
2018-03-11T23:34:44.792Z,76.89
2018-03-11T23:37:48.126Z,76.69
2018-03-11T23:40:51.392Z,76.80
2018-03-11T23:43:55.435Z,77.14
2018-03-11T23:46:58.697Z,76.76
2018-03-11T23:50:01.956Z,77.11
2018-03-11T23:53:05.208Z,77.67
2018-03-11T23:56:09.341Z,78.62
2018-03-11T23:59:13.369Z,78.71
